sensor_id;sensor_type;location;lat;lon;timestamp;P1;durP1;ratioP1;P2;durP2;ratioP2
20637;SDS011;10478;49.004;8.470;2022-08-01T00:02:14;3.92;;;1.73;;
20637;SDS011;10478;49.004;8.470;2022-08-01T00:04:40;2.15;;;1.50;;
20637;SDS011;10478;49.004;8.470;2022-08-01T00:07:05;4.55;;;1.90;;
20637;SDS011;10478;49.004;8.470;2022-08-01T00:09:30;2.55;;;1.85;;
20637;SDS011;10478;49.004;8.470;2022-08-01T00:11:56;3.15;;;2.03;;
20637;SDS011;10478;49.004;8.470;2022-08-01T00:14:21;3.67;;;1.98;;
20637;SDS011;10478;49.004;8.470;2022-08-01T00:16:47;3.20;;;1.30;;
20637;SDS011;10478;49.004;8.470;2022-08-01T00:19:12;5.70;;;2.30;;
20637;SDS011;10478;49.004;8.470;2022-08-01T00:21:37;2.38;;;1.80;;
20637;SDS011;10478;49.004;8.470;2022-08-01T00:24:03;2.13;;;1.58;;
20637;SDS011;10478;49.004;8.470;2022-08-01T00:26:28;3.33;;;2.17;;
20637;SDS011;10478;49.004;8.470;2022-08-01T00:28:53;2.45;;;1.60;;
20637;SDS011;10478;49.004;8.470;2022-08-01T00:31:19;3.83;;;1.50;;
20637;SDS011;10478;49.004;8.470;2022-08-01T00:33:44;4.55;;;1.80;;
20637;SDS011;10478;49.004;8.470;2022-08-01T00:36:09;4.28;;;1.52;;
20637;SDS011;10478;49.004;8.470;2022-08-01T00:38:34;5.70;;;1.70;;
20637;SDS011;10478;49.004;8.470;2022-08-01T00:41:00;3.15;;;1.83;;
20637;SDS011;10478;49.004;8.470;2022-08-01T00:43:25;3.22;;;2.03;;
20637;SDS011;10478;49.004;8.470;2022-08-01T00:45:50;4.28;;;1.40;;
20637;SDS011;10478;49.004;8.470;2022-08-01T00:48:16;2.17;;;1.50;;
20637;SDS011;10478;49.004;8.470;2022-08-01T00:50:41;4.07;;;1.83;;
20637;SDS011;10478;49.004;8.470;2022-08-01T00:53:06;1.77;;;1.40;;
20637;SDS011;10478;49.004;8.470;2022-08-01T00:55:32;3.13;;;1.40;;
20637;SDS011;10478;49.004;8.470;2022-08-01T00:57:58;3.72;;;1.98;;
20637;SDS011;10478;49.004;8.470;2022-08-01T01:00:23;1.77;;;1.55;;
20637;SDS011;10478;49.004;8.470;2022-08-01T01:02:49;2.85;;;1.70;;
20637;SDS011;10478;49.004;8.470;2022-08-01T01:05:14;2.00;;;1.50;;
20637;SDS011;10478;49.004;8.470;2022-08-01T01:10:30;1.83;;;1.50;;
20637;SDS011;10478;49.004;8.470;2022-08-01T01:15:47;2.38;;;1.33;;
20637;SDS011;10478;49.004;8.470;2022-08-01T01:20:51;6.63;;;1.90;;
20637;SDS011;10478;49.004;8.470;2022-08-01T01:31:22;3.67;;;1.45;;
20637;SDS011;10478;49.004;8.470;2022-08-01T01:33:49;2.88;;;1.65;;
20637;SDS011;10478;49.004;8.470;2022-08-01T01:36:16;2.72;;;1.73;;
20637;SDS011;10478;49.004;8.470;2022-08-01T01:38:42;4.30;;;1.80;;
20637;SDS011;10478;49.004;8.470;2022-08-01T01:41:09;4.18;;;2.40;;
20637;SDS011;10478;49.004;8.470;2022-08-01T01:43:36;4.88;;;2.00;;
20637;SDS011;10478;49.004;8.470;2022-08-01T01:46:03;2.85;;;1.60;;
20637;SDS011;10478;49.004;8.470;2022-08-01T01:48:29;3.95;;;1.77;;
20637;SDS011;10478;49.004;8.470;2022-08-01T01:50:55;4.82;;;1.70;;
20637;SDS011;10478;49.004;8.470;2022-08-01T01:53:21;4.28;;;1.73;;
20637;SDS011;10478;49.004;8.470;2022-08-01T01:55:48;2.88;;;1.77;;
20637;SDS011;10478;49.004;8.470;2022-08-01T01:58:15;2.92;;;1.73;;
20637;SDS011;10478;49.004;8.470;2022-08-01T02:00:42;3.33;;;1.85;;
20637;SDS011;10478;49.004;8.470;2022-08-01T02:03:08;5.80;;;1.80;;
20637;SDS011;10478;49.004;8.470;2022-08-01T02:05:35;2.72;;;1.98;;
20637;SDS011;10478;49.004;8.470;2022-08-01T02:08:02;2.55;;;1.55;;
20637;SDS011;10478;49.004;8.470;2022-08-01T02:10:29;2.10;;;1.52;;
20637;SDS011;10478;49.004;8.470;2022-08-01T02:12:54;2.38;;;1.52;;
20637;SDS011;10478;49.004;8.470;2022-08-01T02:15:20;3.35;;;1.98;;
20637;SDS011;10478;49.004;8.470;2022-08-01T02:17:47;3.58;;;2.33;;
20637;SDS011;10478;49.004;8.470;2022-08-01T02:20:14;2.05;;;1.60;;
20637;SDS011;10478;49.004;8.470;2022-08-01T02:22:47;4.78;;;2.20;;
20637;SDS011;10478;49.004;8.470;2022-08-01T02:25:27;3.90;;;1.90;;
20637;SDS011;10478;49.004;8.470;2022-08-01T02:27:58;4.25;;;1.50;;
20637;SDS011;10478;49.004;8.470;2022-08-01T02:30:26;3.22;;;1.95;;
20637;SDS011;10478;49.004;8.470;2022-08-01T02:32:59;6.55;;;1.85;;
20637;SDS011;10478;49.004;8.470;2022-08-01T02:35:29;4.32;;;1.83;;
20637;SDS011;10478;49.004;8.470;2022-08-01T02:37:57;3.53;;;2.10;;
20637;SDS011;10478;49.004;8.470;2022-08-01T02:40:23;3.00;;;2.17;;
20637;SDS011;10478;49.004;8.470;2022-08-01T02:42:49;5.80;;;1.98;;
20637;SDS011;10478;49.004;8.470;2022-08-01T02:45:17;4.25;;;1.90;;
20637;SDS011;10478;49.004;8.470;2022-08-01T02:47:43;2.75;;;1.70;;
20637;SDS011;10478;49.004;8.470;2022-08-01T02:50:10;2.97;;;1.90;;
20637;SDS011;10478;49.004;8.470;2022-08-01T02:52:37;2.72;;;1.80;;
20637;SDS011;10478;49.004;8.470;2022-08-01T02:55:03;4.47;;;1.92;;
20637;SDS011;10478;49.004;8.470;2022-08-01T02:57:29;2.75;;;1.92;;
20637;SDS011;10478;49.004;8.470;2022-08-01T02:59:55;3.22;;;1.90;;
20637;SDS011;10478;49.004;8.470;2022-08-01T03:02:22;2.95;;;1.85;;
20637;SDS011;10478;49.004;8.470;2022-08-01T03:04:48;2.75;;;1.88;;
20637;SDS011;10478;49.004;8.470;2022-08-01T03:07:16;3.10;;;1.63;;
20637;SDS011;10478;49.004;8.470;2022-08-01T03:09:43;3.00;;;1.70;;
20637;SDS011;10478;49.004;8.470;2022-08-01T03:12:14;4.28;;;2.05;;
20637;SDS011;10478;49.004;8.470;2022-08-01T03:14:42;2.55;;;1.50;;
20637;SDS011;10478;49.004;8.470;2022-08-01T03:17:08;4.28;;;2.35;;
20637;SDS011;10478;49.004;8.470;2022-08-01T03:19:34;2.78;;;2.13;;
20637;SDS011;10478;49.004;8.470;2022-08-01T03:22:02;3.35;;;2.10;;
20637;SDS011;10478;49.004;8.470;2022-08-01T03:24:31;2.63;;;1.60;;
20637;SDS011;10478;49.004;8.470;2022-08-01T03:26:58;5.15;;;2.42;;
20637;SDS011;10478;49.004;8.470;2022-08-01T03:29:24;4.90;;;2.20;;
20637;SDS011;10478;49.004;8.470;2022-08-01T03:31:50;2.55;;;1.80;;
20637;SDS011;10478;49.004;8.470;2022-08-01T03:34:16;3.65;;;2.05;;
20637;SDS011;10478;49.004;8.470;2022-08-01T03:39:29;6.35;;;1.92;;
20637;SDS011;10478;49.004;8.470;2022-08-01T03:41:58;4.88;;;1.88;;
20637;SDS011;10478;49.004;8.470;2022-08-01T03:44:26;4.93;;;2.30;;
20637;SDS011;10478;49.004;8.470;2022-08-01T03:46:56;5.30;;;2.42;;
20637;SDS011;10478;49.004;8.470;2022-08-01T03:49:26;3.22;;;1.67;;
20637;SDS011;10478;49.004;8.470;2022-08-01T03:51:55;6.30;;;2.15;;
20637;SDS011;10478;49.004;8.470;2022-08-01T03:54:21;3.28;;;2.05;;
20637;SDS011;10478;49.004;8.470;2022-08-01T03:56:49;4.00;;;2.50;;
20637;SDS011;10478;49.004;8.470;2022-08-01T03:59:16;3.47;;;2.28;;
20637;SDS011;10478;49.004;8.470;2022-08-01T04:01:43;5.55;;;1.95;;
20637;SDS011;10478;49.004;8.470;2022-08-01T04:04:09;3.55;;;2.40;;
20637;SDS011;10478;49.004;8.470;2022-08-01T04:06:37;2.28;;;1.63;;
20637;SDS011;10478;49.004;8.470;2022-08-01T04:09:03;3.33;;;2.15;;
20637;SDS011;10478;49.004;8.470;2022-08-01T04:11:28;6.13;;;2.20;;
20637;SDS011;10478;49.004;8.470;2022-08-01T04:13:54;4.70;;;1.85;;
20637;SDS011;10478;49.004;8.470;2022-08-01T04:16:20;4.40;;;2.20;;
20637;SDS011;10478;49.004;8.470;2022-08-01T04:18:46;4.25;;;2.08;;
20637;SDS011;10478;49.004;8.470;2022-08-01T04:21:12;6.15;;;2.78;;
20637;SDS011;10478;49.004;8.470;2022-08-01T04:23:38;2.63;;;1.92;;
20637;SDS011;10478;49.004;8.470;2022-08-01T04:26:06;6.63;;;3.28;;
20637;SDS011;10478;49.004;8.470;2022-08-01T04:28:33;4.10;;;2.85;;
20637;SDS011;10478;49.004;8.470;2022-08-01T04:31:00;5.15;;;3.33;;
20637;SDS011;10478;49.004;8.470;2022-08-01T04:33:25;8.70;;;3.10;;
20637;SDS011;10478;49.004;8.470;2022-08-01T04:35:53;8.93;;;4.65;;
20637;SDS011;10478;49.004;8.470;2022-08-01T04:38:20;4.72;;;3.15;;
20637;SDS011;10478;49.004;8.470;2022-08-01T04:40:46;5.30;;;2.67;;
20637;SDS011;10478;49.004;8.470;2022-08-01T04:43:14;12.10;;;4.30;;
20637;SDS011;10478;49.004;8.470;2022-08-01T04:45:39;27.08;;;16.20;;
20637;SDS011;10478;49.004;8.470;2022-08-01T04:48:05;10.13;;;4.93;;
20637;SDS011;10478;49.004;8.470;2022-08-01T04:50:34;20.58;;;11.50;;
20637;SDS011;10478;49.004;8.470;2022-08-01T04:53:00;14.38;;;10.07;;
20637;SDS011;10478;49.004;8.470;2022-08-01T04:55:27;20.27;;;11.57;;
20637;SDS011;10478;49.004;8.470;2022-08-01T04:57:53;15.18;;;7.35;;
20637;SDS011;10478;49.004;8.470;2022-08-01T05:00:18;7.18;;;3.20;;
20637;SDS011;10478;49.004;8.470;2022-08-01T05:02:44;3.35;;;2.00;;
20637;SDS011;10478;49.004;8.470;2022-08-01T05:05:09;5.13;;;2.58;;
20637;SDS011;10478;49.004;8.470;2022-08-01T05:07:35;3.10;;;1.95;;
20637;SDS011;10478;49.004;8.470;2022-08-01T05:10:01;2.70;;;2.10;;
20637;SDS011;10478;49.004;8.470;2022-08-01T05:12:27;5.10;;;2.42;;
20637;SDS011;10478;49.004;8.470;2022-08-01T05:14:53;5.80;;;2.35;;
20637;SDS011;10478;49.004;8.470;2022-08-01T05:17:18;9.02;;;5.68;;
20637;SDS011;10478;49.004;8.470;2022-08-01T05:19:43;12.23;;;7.63;;
20637;SDS011;10478;49.004;8.470;2022-08-01T05:22:09;10.15;;;6.05;;
20637;SDS011;10478;49.004;8.470;2022-08-01T05:24:35;8.73;;;5.03;;
20637;SDS011;10478;49.004;8.470;2022-08-01T05:27:03;4.85;;;3.30;;
20637;SDS011;10478;49.004;8.470;2022-08-01T05:29:29;14.45;;;4.00;;
20637;SDS011;10478;49.004;8.470;2022-08-01T05:31:54;6.13;;;3.67;;
20637;SDS011;10478;49.004;8.470;2022-08-01T05:34:20;8.48;;;4.50;;
20637;SDS011;10478;49.004;8.470;2022-08-01T05:36:46;6.63;;;3.17;;
20637;SDS011;10478;49.004;8.470;2022-08-01T05:39:12;7.13;;;3.85;;
20637;SDS011;10478;49.004;8.470;2022-08-01T05:41:37;7.05;;;2.40;;
20637;SDS011;10478;49.004;8.470;2022-08-01T05:44:04;5.28;;;2.28;;
20637;SDS011;10478;49.004;8.470;2022-08-01T05:46:29;4.35;;;2.58;;
20637;SDS011;10478;49.004;8.470;2022-08-01T05:48:58;3.95;;;2.22;;
20637;SDS011;10478;49.004;8.470;2022-08-01T05:51:25;2.70;;;2.10;;
20637;SDS011;10478;49.004;8.470;2022-08-01T05:53:50;5.65;;;2.13;;
20637;SDS011;10478;49.004;8.470;2022-08-01T05:56:16;4.60;;;2.22;;
20637;SDS011;10478;49.004;8.470;2022-08-01T05:58:41;4.38;;;2.25;;
20637;SDS011;10478;49.004;8.470;2022-08-01T06:01:06;2.53;;;1.73;;
20637;SDS011;10478;49.004;8.470;2022-08-01T06:03:32;4.40;;;2.25;;
20637;SDS011;10478;49.004;8.470;2022-08-01T06:05:58;2.85;;;2.13;;
20637;SDS011;10478;49.004;8.470;2022-08-01T06:08:24;7.85;;;2.30;;
20637;SDS011;10478;49.004;8.470;2022-08-01T06:10:49;5.25;;;2.00;;
20637;SDS011;10478;49.004;8.470;2022-08-01T06:13:14;5.20;;;2.22;;
20637;SDS011;10478;49.004;8.470;2022-08-01T06:15:40;6.15;;;2.40;;
20637;SDS011;10478;49.004;8.470;2022-08-01T06:18:05;2.40;;;1.73;;
20637;SDS011;10478;49.004;8.470;2022-08-01T06:20:31;3.97;;;2.22;;
20637;SDS011;10478;49.004;8.470;2022-08-01T06:22:56;2.65;;;1.73;;
20637;SDS011;10478;49.004;8.470;2022-08-01T06:25:21;2.92;;;2.28;;
20637;SDS011;10478;49.004;8.470;2022-08-01T06:27:47;2.50;;;1.67;;
20637;SDS011;10478;49.004;8.470;2022-08-01T06:30:12;4.28;;;2.00;;
20637;SDS011;10478;49.004;8.470;2022-08-01T06:32:38;2.80;;;1.70;;
20637;SDS011;10478;49.004;8.470;2022-08-01T06:35:03;2.90;;;2.17;;
20637;SDS011;10478;49.004;8.470;2022-08-01T06:37:30;2.95;;;1.83;;
20637;SDS011;10478;49.004;8.470;2022-08-01T06:39:56;3.28;;;1.83;;
20637;SDS011;10478;49.004;8.470;2022-08-01T06:42:21;2.85;;;1.80;;
20637;SDS011;10478;49.004;8.470;2022-08-01T06:44:47;2.22;;;1.58;;
20637;SDS011;10478;49.004;8.470;2022-08-01T06:47:12;3.42;;;2.08;;
20637;SDS011;10478;49.004;8.470;2022-08-01T06:49:37;2.30;;;2.05;;
20637;SDS011;10478;49.004;8.470;2022-08-01T06:52:03;3.15;;;1.60;;
20637;SDS011;10478;49.004;8.470;2022-08-01T06:54:29;2.22;;;1.50;;
20637;SDS011;10478;49.004;8.470;2022-08-01T06:56:54;3.17;;;1.30;;
20637;SDS011;10478;49.004;8.470;2022-08-01T06:59:19;1.80;;;1.38;;
20637;SDS011;10478;49.004;8.470;2022-08-01T07:01:44;6.60;;;1.67;;
20637;SDS011;10478;49.004;8.470;2022-08-01T07:04:10;5.00;;;1.92;;
20637;SDS011;10478;49.004;8.470;2022-08-01T07:06:35;5.15;;;2.13;;
20637;SDS011;10478;49.004;8.470;2022-08-01T07:09:00;7.18;;;2.50;;
20637;SDS011;10478;49.004;8.470;2022-08-01T07:11:27;2.97;;;1.55;;
20637;SDS011;10478;49.004;8.470;2022-08-01T07:13:52;3.25;;;1.60;;
20637;SDS011;10478;49.004;8.470;2022-08-01T07:16:17;2.38;;;1.67;;
20637;SDS011;10478;49.004;8.470;2022-08-01T07:18:43;5.00;;;1.98;;
20637;SDS011;10478;49.004;8.470;2022-08-01T07:21:08;10.00;;;6.10;;
20637;SDS011;10478;49.004;8.470;2022-08-01T07:23:33;4.10;;;2.72;;
20637;SDS011;10478;49.004;8.470;2022-08-01T07:25:59;3.28;;;1.90;;
20637;SDS011;10478;49.004;8.470;2022-08-01T07:28:26;4.18;;;2.10;;
20637;SDS011;10478;49.004;8.470;2022-08-01T07:30:52;3.92;;;2.58;;
20637;SDS011;10478;49.004;8.470;2022-08-01T07:33:17;3.90;;;2.88;;
20637;SDS011;10478;49.004;8.470;2022-08-01T07:35:42;3.97;;;2.88;;
20637;SDS011;10478;49.004;8.470;2022-08-01T07:38:07;4.63;;;2.95;;
20637;SDS011;10478;49.004;8.470;2022-08-01T07:40:33;7.95;;;3.40;;
20637;SDS011;10478;49.004;8.470;2022-08-01T07:42:59;5.35;;;3.17;;
20637;SDS011;10478;49.004;8.470;2022-08-01T07:45:24;5.43;;;2.55;;
20637;SDS011;10478;49.004;8.470;2022-08-01T07:47:51;7.32;;;3.17;;
20637;SDS011;10478;49.004;8.470;2022-08-01T07:50:16;5.13;;;3.28;;
20637;SDS011;10478;49.004;8.470;2022-08-01T07:52:42;5.97;;;2.85;;
20637;SDS011;10478;49.004;8.470;2022-08-01T07:55:09;4.85;;;2.55;;
20637;SDS011;10478;49.004;8.470;2022-08-01T07:57:35;3.90;;;2.90;;
20637;SDS011;10478;49.004;8.470;2022-08-01T08:00:01;5.35;;;2.30;;
20637;SDS011;10478;49.004;8.470;2022-08-01T08:02:28;4.80;;;2.10;;
20637;SDS011;10478;49.004;8.470;2022-08-01T08:04:53;7.70;;;1.90;;
20637;SDS011;10478;49.004;8.470;2022-08-01T08:07:18;7.28;;;2.05;;
20637;SDS011;10478;49.004;8.470;2022-08-01T08:09:44;5.68;;;1.90;;
20637;SDS011;10478;49.004;8.470;2022-08-01T08:12:09;3.30;;;1.67;;
20637;SDS011;10478;49.004;8.470;2022-08-01T08:14:34;2.70;;;1.50;;
20637;SDS011;10478;49.004;8.470;2022-08-01T08:17:00;1.80;;;1.30;;
20637;SDS011;10478;49.004;8.470;2022-08-01T08:19:25;2.55;;;1.50;;
20637;SDS011;10478;49.004;8.470;2022-08-01T08:21:50;11.07;;;1.30;;
20637;SDS011;10478;49.004;8.470;2022-08-01T08:24:16;2.40;;;1.40;;
20637;SDS011;10478;49.004;8.470;2022-08-01T08:26:44;3.45;;;1.50;;
20637;SDS011;10478;49.004;8.470;2022-08-01T08:29:09;3.05;;;1.50;;
20637;SDS011;10478;49.004;8.470;2022-08-01T08:31:34;3.13;;;1.45;;
20637;SDS011;10478;49.004;8.470;2022-08-01T08:34:00;2.38;;;1.27;;
20637;SDS011;10478;49.004;8.470;2022-08-01T08:36:25;2.17;;;1.20;;
20637;SDS011;10478;49.004;8.470;2022-08-01T08:38:50;1.92;;;1.05;;
20637;SDS011;10478;49.004;8.470;2022-08-01T08:41:16;3.33;;;1.73;;
20637;SDS011;10478;49.004;8.470;2022-08-01T08:43:41;2.20;;;1.17;;
20637;SDS011;10478;49.004;8.470;2022-08-01T08:46:07;3.45;;;1.20;;
20637;SDS011;10478;49.004;8.470;2022-08-01T08:48:33;3.08;;;1.95;;
20637;SDS011;10478;49.004;8.470;2022-08-01T08:50:59;3.38;;;1.67;;
20637;SDS011;10478;49.004;8.470;2022-08-01T08:53:25;2.78;;;1.45;;
20637;SDS011;10478;49.004;8.470;2022-08-01T08:55:51;5.50;;;1.35;;
20637;SDS011;10478;49.004;8.470;2022-08-01T08:58:17;2.17;;;1.15;;
20637;SDS011;10478;49.004;8.470;2022-08-01T09:00:42;1.80;;;1.13;;
20637;SDS011;10478;49.004;8.470;2022-08-01T09:03:08;1.63;;;1.05;;
20637;SDS011;10478;49.004;8.470;2022-08-01T09:05:34;1.67;;;0.93;;
20637;SDS011;10478;49.004;8.470;2022-08-01T09:07:59;3.88;;;1.40;;
20637;SDS011;10478;49.004;8.470;2022-08-01T09:10:25;4.20;;;1.25;;
20637;SDS011;10478;49.004;8.470;2022-08-01T09:13:10;1.20;;;0.73;;
20637;SDS011;10478;49.004;8.470;2022-08-01T09:15:41;1.83;;;0.82;;
20637;SDS011;10478;49.004;8.470;2022-08-01T09:18:08;2.33;;;1.42;;
20637;SDS011;10478;49.004;8.470;2022-08-01T09:23:32;2.40;;;1.73;;
20637;SDS011;10478;49.004;8.470;2022-08-01T09:26:03;1.73;;;0.82;;
20637;SDS011;10478;49.004;8.470;2022-08-01T09:28:29;1.40;;;0.80;;
20637;SDS011;10478;49.004;8.470;2022-08-01T09:30:56;3.08;;;1.05;;
20637;SDS011;10478;49.004;8.470;2022-08-01T09:33:21;3.85;;;1.13;;
20637;SDS011;10478;49.004;8.470;2022-08-01T09:35:54;2.55;;;1.30;;
20637;SDS011;10478;49.004;8.470;2022-08-01T09:38:21;2.40;;;1.05;;
20637;SDS011;10478;49.004;8.470;2022-08-01T09:40:58;2.22;;;1.00;;
20637;SDS011;10478;49.004;8.470;2022-08-01T09:43:28;4.38;;;1.23;;
20637;SDS011;10478;49.004;8.470;2022-08-01T09:45:55;4.43;;;1.75;;
20637;SDS011;10478;49.004;8.470;2022-08-01T09:48:21;1.77;;;0.98;;
20637;SDS011;10478;49.004;8.470;2022-08-01T09:50:48;2.15;;;1.20;;
20637;SDS011;10478;49.004;8.470;2022-08-01T09:53:15;1.85;;;1.30;;
20637;SDS011;10478;49.004;8.470;2022-08-01T09:55:41;2.05;;;1.00;;
20637;SDS011;10478;49.004;8.470;2022-08-01T09:58:07;1.88;;;1.00;;
20637;SDS011;10478;49.004;8.470;2022-08-01T10:00:34;2.28;;;0.98;;
20637;SDS011;10478;49.004;8.470;2022-08-01T10:03:00;2.45;;;1.20;;
20637;SDS011;10478;49.004;8.470;2022-08-01T10:05:30;1.65;;;1.02;;
20637;SDS011;10478;49.004;8.470;2022-08-01T10:10:26;1.70;;;1.02;;
20637;SDS011;10478;49.004;8.470;2022-08-01T10:12:52;2.75;;;1.25;;
20637;SDS011;10478;49.004;8.470;2022-08-01T10:15:18;9.90;;;2.17;;
20637;SDS011;10478;49.004;8.470;2022-08-01T10:17:57;4.03;;;1.45;;
20637;SDS011;10478;49.004;8.470;2022-08-01T10:20:27;1.77;;;0.93;;
20637;SDS011;10478;49.004;8.470;2022-08-01T10:22:54;1.88;;;0.90;;
20637;SDS011;10478;49.004;8.470;2022-08-01T10:25:20;1.42;;;0.65;;
20637;SDS011;10478;49.004;8.470;2022-08-01T10:27:48;2.58;;;1.02;;
20637;SDS011;10478;49.004;8.470;2022-08-01T10:30:14;2.08;;;0.95;;
20637;SDS011;10478;49.004;8.470;2022-08-01T10:32:40;1.63;;;1.00;;
20637;SDS011;10478;49.004;8.470;2022-08-01T10:35:09;2.72;;;0.98;;
20637;SDS011;10478;49.004;8.470;2022-08-01T10:37:40;1.88;;;1.13;;
20637;SDS011;10478;49.004;8.470;2022-08-01T10:40:06;1.88;;;1.13;;
20637;SDS011;10478;49.004;8.470;2022-08-01T10:42:32;1.52;;;0.98;;
20637;SDS011;10478;49.004;8.470;2022-08-01T10:44:58;8.77;;;1.15;;
20637;SDS011;10478;49.004;8.470;2022-08-01T10:47:25;2.22;;;1.30;;
20637;SDS011;10478;49.004;8.470;2022-08-01T10:50:07;2.10;;;1.25;;
20637;SDS011;10478;49.004;8.470;2022-08-01T10:52:39;3.88;;;1.60;;
20637;SDS011;10478;49.004;8.470;2022-08-01T10:55:05;1.27;;;1.02;;
20637;SDS011;10478;49.004;8.470;2022-08-01T10:57:44;2.95;;;1.63;;
20637;SDS011;10478;49.004;8.470;2022-08-01T11:00:16;2.67;;;1.48;;
20637;SDS011;10478;49.004;8.470;2022-08-01T11:05:30;2.40;;;1.70;;
20637;SDS011;10478;49.004;8.470;2022-08-01T11:07:58;2.97;;;1.95;;
20637;SDS011;10478;49.004;8.470;2022-08-01T11:13:06;2.67;;;1.60;;
20637;SDS011;10478;49.004;8.470;2022-08-01T11:15:36;4.15;;;1.50;;
20637;SDS011;10478;49.004;8.470;2022-08-01T11:18:02;1.98;;;1.40;;
20637;SDS011;10478;49.004;8.470;2022-08-01T11:20:31;3.03;;;1.52;;
20637;SDS011;10478;49.004;8.470;2022-08-01T11:25:26;3.45;;;1.60;;
20637;SDS011;10478;49.004;8.470;2022-08-01T11:30:43;1.67;;;1.40;;
20637;SDS011;10478;49.004;8.470;2022-08-01T11:33:10;2.05;;;1.20;;
20637;SDS011;10478;49.004;8.470;2022-08-01T11:35:35;3.60;;;1.40;;
20637;SDS011;10478;49.004;8.470;2022-08-01T11:46:56;2.25;;;1.05;;
20637;SDS011;10478;49.004;8.470;2022-08-01T11:49:31;1.55;;;0.98;;
20637;SDS011;10478;49.004;8.470;2022-08-01T11:54:41;1.50;;;1.15;;
20637;SDS011;10478;49.004;8.470;2022-08-01T11:57:27;6.25;;;1.30;;
20637;SDS011;10478;49.004;8.470;2022-08-01T12:00:00;1.58;;;1.27;;
20637;SDS011;10478;49.004;8.470;2022-08-01T12:05:00;2.28;;;1.52;;
20637;SDS011;10478;49.004;8.470;2022-08-01T12:07:27;4.30;;;1.17;;
20637;SDS011;10478;49.004;8.470;2022-08-01T12:12:33;2.42;;;1.60;;
20637;SDS011;10478;49.004;8.470;2022-08-01T12:15:02;3.30;;;1.50;;
20637;SDS011;10478;49.004;8.470;2022-08-01T12:17:34;1.88;;;1.40;;
20637;SDS011;10478;49.004;8.470;2022-08-01T12:20:02;1.98;;;1.45;;
20637;SDS011;10478;49.004;8.470;2022-08-01T12:22:29;3.88;;;1.25;;
20637;SDS011;10478;49.004;8.470;2022-08-01T12:24:55;2.88;;;1.20;;
20637;SDS011;10478;49.004;8.470;2022-08-01T12:27:24;2.40;;;1.33;;
20637;SDS011;10478;49.004;8.470;2022-08-01T12:29:52;2.13;;;1.00;;
20637;SDS011;10478;49.004;8.470;2022-08-01T12:32:22;6.18;;;1.30;;
20637;SDS011;10478;49.004;8.470;2022-08-01T12:34:49;3.10;;;1.25;;
20637;SDS011;10478;49.004;8.470;2022-08-01T12:37:16;3.78;;;1.27;;
20637;SDS011;10478;49.004;8.470;2022-08-01T12:39:41;2.80;;;1.55;;
20637;SDS011;10478;49.004;8.470;2022-08-01T12:42:07;1.20;;;1.00;;
20637;SDS011;10478;49.004;8.470;2022-08-01T12:44:35;1.15;;;0.93;;
20637;SDS011;10478;49.004;8.470;2022-08-01T12:47:00;1.63;;;0.82;;
20637;SDS011;10478;49.004;8.470;2022-08-01T12:49:26;2.72;;;1.15;;
20637;SDS011;10478;49.004;8.470;2022-08-01T12:51:52;1.48;;;1.05;;
20637;SDS011;10478;49.004;8.470;2022-08-01T12:54:17;1.58;;;0.90;;
20637;SDS011;10478;49.004;8.470;2022-08-01T12:56:43;1.48;;;1.23;;
20637;SDS011;10478;49.004;8.470;2022-08-01T12:59:21;2.17;;;1.30;;
20637;SDS011;10478;49.004;8.470;2022-08-01T13:01:52;4.15;;;1.30;;
20637;SDS011;10478;49.004;8.470;2022-08-01T13:04:18;4.47;;;1.30;;
20637;SDS011;10478;49.004;8.470;2022-08-01T13:06:43;1.35;;;1.23;;
20637;SDS011;10478;49.004;8.470;2022-08-01T13:09:09;1.88;;;0.90;;
20637;SDS011;10478;49.004;8.470;2022-08-01T13:11:38;2.92;;;1.00;;
20637;SDS011;10478;49.004;8.470;2022-08-01T13:14:04;1.80;;;1.27;;
20637;SDS011;10478;49.004;8.470;2022-08-01T13:16:30;2.10;;;0.98;;
20637;SDS011;10478;49.004;8.470;2022-08-01T13:18:56;2.15;;;1.30;;
20637;SDS011;10478;49.004;8.470;2022-08-01T13:21:22;1.35;;;1.00;;
20637;SDS011;10478;49.004;8.470;2022-08-01T13:29:07;1.77;;;1.02;;
20637;SDS011;10478;49.004;8.470;2022-08-01T13:31:34;2.58;;;1.20;;
20637;SDS011;10478;49.004;8.470;2022-08-01T13:34:00;1.80;;;1.00;;
20637;SDS011;10478;49.004;8.470;2022-08-01T13:36:25;2.30;;;1.10;;
20637;SDS011;10478;49.004;8.470;2022-08-01T13:38:53;1.50;;;0.88;;
20637;SDS011;10478;49.004;8.470;2022-08-01T13:41:37;1.60;;;0.80;;
20637;SDS011;10478;49.004;8.470;2022-08-01T13:44:03;1.25;;;0.80;;
20637;SDS011;10478;49.004;8.470;2022-08-01T13:46:28;1.77;;;1.25;;
20637;SDS011;10478;49.004;8.470;2022-08-01T13:48:53;4.47;;;1.13;;
20637;SDS011;10478;49.004;8.470;2022-08-01T13:51:19;1.73;;;1.20;;
20637;SDS011;10478;49.004;8.470;2022-08-01T13:53:44;2.30;;;0.75;;
20637;SDS011;10478;49.004;8.470;2022-08-01T13:56:09;2.35;;;0.90;;
20637;SDS011;10478;49.004;8.470;2022-08-01T13:58:35;0.90;;;0.68;;
20637;SDS011;10478;49.004;8.470;2022-08-01T14:01:01;3.90;;;1.20;;
20637;SDS011;10478;49.004;8.470;2022-08-01T14:03:26;7.30;;;1.27;;
20637;SDS011;10478;49.004;8.470;2022-08-01T14:05:52;2.15;;;0.80;;
20637;SDS011;10478;49.004;8.470;2022-08-01T14:08:17;3.67;;;0.80;;
20637;SDS011;10478;49.004;8.470;2022-08-01T14:10:43;3.47;;;0.88;;
20637;SDS011;10478;49.004;8.470;2022-08-01T14:13:08;1.83;;;0.50;;
20637;SDS011;10478;49.004;8.470;2022-08-01T14:15:34;2.00;;;0.73;;
20637;SDS011;10478;49.004;8.470;2022-08-01T14:17:59;1.83;;;1.00;;
20637;SDS011;10478;49.004;8.470;2022-08-01T14:20:24;1.80;;;1.00;;
20637;SDS011;10478;49.004;8.470;2022-08-01T14:22:50;1.15;;;0.90;;
20637;SDS011;10478;49.004;8.470;2022-08-01T14:25:15;2.28;;;0.88;;
20637;SDS011;10478;49.004;8.470;2022-08-01T14:27:43;2.97;;;0.80;;
20637;SDS011;10478;49.004;8.470;2022-08-01T14:30:09;1.67;;;0.65;;
20637;SDS011;10478;49.004;8.470;2022-08-01T14:32:34;0.95;;;0.75;;
20637;SDS011;10478;49.004;8.470;2022-08-01T14:35:00;1.85;;;0.60;;
20637;SDS011;10478;49.004;8.470;2022-08-01T14:37:26;1.58;;;0.52;;
20637;SDS011;10478;49.004;8.470;2022-08-01T14:39:53;1.10;;;0.60;;
20637;SDS011;10478;49.004;8.470;2022-08-01T14:42:18;1.95;;;1.02;;
20637;SDS011;10478;49.004;8.470;2022-08-01T14:44:43;3.38;;;1.80;;
20637;SDS011;10478;49.004;8.470;2022-08-01T14:47:09;4.65;;;3.25;;
20637;SDS011;10478;49.004;8.470;2022-08-01T14:49:34;3.83;;;2.67;;
20637;SDS011;10478;49.004;8.470;2022-08-01T14:52:00;1.60;;;0.80;;
20637;SDS011;10478;49.004;8.470;2022-08-01T14:54:25;1.42;;;0.70;;
20637;SDS011;10478;49.004;8.470;2022-08-01T14:56:50;5.05;;;2.00;;
20637;SDS011;10478;49.004;8.470;2022-08-01T14:59:17;1.55;;;0.73;;
20637;SDS011;10478;49.004;8.470;2022-08-01T15:01:43;6.57;;;2.35;;
20637;SDS011;10478;49.004;8.470;2022-08-01T15:04:08;0.95;;;0.60;;
20637;SDS011;10478;49.004;8.470;2022-08-01T15:06:33;1.17;;;0.70;;
20637;SDS011;10478;49.004;8.470;2022-08-01T15:08:59;2.78;;;0.95;;
20637;SDS011;10478;49.004;8.470;2022-08-01T15:11:24;1.23;;;0.60;;
20637;SDS011;10478;49.004;8.470;2022-08-01T15:13:49;1.20;;;0.80;;
20637;SDS011;10478;49.004;8.470;2022-08-01T15:16:35;5.45;;;0.90;;
20637;SDS011;10478;49.004;8.470;2022-08-01T15:19:00;4.00;;;0.70;;
20637;SDS011;10478;49.004;8.470;2022-08-01T15:21:25;1.75;;;1.00;;
20637;SDS011;10478;49.004;8.470;2022-08-01T15:23:51;1.67;;;0.63;;
20637;SDS011;10478;49.004;8.470;2022-08-01T15:26:16;1.13;;;0.75;;
20637;SDS011;10478;49.004;8.470;2022-08-01T15:28:41;3.35;;;1.02;;
20637;SDS011;10478;49.004;8.470;2022-08-01T15:31:07;1.15;;;0.80;;
20637;SDS011;10478;49.004;8.470;2022-08-01T15:33:32;1.45;;;0.73;;
20637;SDS011;10478;49.004;8.470;2022-08-01T15:35:57;2.80;;;0.93;;
20637;SDS011;10478;49.004;8.470;2022-08-01T15:38:23;0.95;;;0.57;;
20637;SDS011;10478;49.004;8.470;2022-08-01T15:40:48;2.33;;;0.80;;
20637;SDS011;10478;49.004;8.470;2022-08-01T15:43:13;2.22;;;1.00;;